Time;durP1;ratioP1;P1;durP2;ratioP2;P2;SDS_P1;SDS_P2;PMS_P1;PMS_P2;Temp;Humidity;BMP_temperature;BMP_pressure;BME280_temperature;BME280_humidity;BME280_pressure;Samples;Min_cycle;Max_cycle;Signal;HPM_P1;HPM_P2
2023/05/08 00:02:03;;;;;;;7.75;5.50;;;18.60;71.40;;;;;;5056827;28;20032;-63
2023/05/08 00:04:29;;;;;;;7.85;5.75;;;18.70;71.40;;;;;;5058310;28;20033;-63
2023/05/08 00:06:55;;;;;;;8.98;5.10;;;18.70;71.60;;;;;;5057763;28;20063;-63
2023/05/08 00:09:21;;;;;;;8.07;5.32;;;18.60;71.60;;;;;;5058171;28;20098;-63
2023/05/08 00:11:47;;;;;;;8.57;5.47;;;18.60;71.50;;;;;;5057561;28;20028;-63
2023/05/08 00:14:13;;;;;;;8.80;5.00;;;18.50;71.50;;;;;;5057886;28;20393;-63
2023/05/08 00:16:39;;;;;;;6.53;4.65;;;18.50;71.50;;;;;;5057585;28;20419;-63
2023/05/08 00:19:06;;;;;;;6.40;4.63;;;18.50;71.50;;;;;;5057504;28;20025;-63
2023/05/08 00:21:32;;;;;;;6.43;4.22;;;18.40;71.50;;;;;;5057356;28;20458;-63
2023/05/08 00:23:58;;;;;;;6.22;4.20;;;18.40;71.60;;;;;;5057650;28;20092;-63
2023/05/08 00:26:24;;;;;;;5.07;3.55;;;18.30;71.70;;;;;;5057537;28;20028;-63
2023/05/08 00:28:51;;;;;;;6.10;3.78;;;18.20;71.70;;;;;;5057509;28;20347;-63
2023/05/08 00:31:17;;;;;;;7.82;3.88;;;18.20;71.70;;;;;;5057554;28;20073;-63
2023/05/08 00:33:42;;;;;;;11.43;4.25;;;18.10;71.90;;;;;;5057415;28;20021;-63
2023/05/08 00:36:08;;;;;;;7.05;3.53;;;18.00;72.00;;;;;;5057466;28;20021;-63
2023/05/08 00:38:35;;;;;;;4.80;2.97;;;17.90;72.30;;;;;;5057648;28;20037;-63
2023/05/08 00:41:02;;;;;;;7.63;3.05;;;17.80;72.30;;;;;;5057330;28;20119;-63
2023/05/08 00:43:28;;;;;;;7.30;3.45;;;17.70;72.40;;;;;;5057497;28;20049;-63
2023/05/08 00:45:57;;;;;;;8.80;3.75;;;17.60;72.60;;;;;;5057505;28;20029;-63
2023/05/08 00:48:24;;;;;;;8.82;4.10;;;17.50;73.70;;;;;;5056879;28;20033;-63
2023/05/08 00:50:51;;;;;;;8.23;4.05;;;17.40;73.70;;;;;;5056836;28;20075;-63
2023/05/08 00:53:19;;;;;;;7.55;3.83;;;17.20;74.20;;;;;;5056724;28;20064;-63
2023/05/08 00:55:46;;;;;;;9.43;3.83;;;17.10;74.30;;;;;;5056658;28;20063;-64
2023/05/08 00:58:13;;;;;;;6.55;3.03;;;16.90;74.70;;;;;;5056768;28;20044;-63
2023/05/08 01:00:41;;;;;;;3.38;2.53;;;16.90;74.70;;;;;;5056710;28;20029;-63
2023/05/08 01:03:08;;;;;;;4.25;2.70;;;16.80;74.60;;;;;;5057135;28;20021;-63
2023/05/08 01:05:35;;;;;;;5.13;2.83;;;16.80;74.60;;;;;;5057130;28;20035;-63
2023/05/08 01:08:01;;;;;;;6.72;3.00;;;16.70;74.80;;;;;;5056463;28;20025;-63
2023/05/08 01:10:47;;;;;;;6.35;3.05;;;16.70;74.80;;;;;;5056782;28;20025;-63
2023/05/08 01:13:38;;;;;;;3.58;2.55;;;16.70;75.00;;;;;;5056489;28;20063;-63
2023/05/08 01:16:28;;;;;;;3.08;2.67;;;16.70;75.90;;;;;;5056246;28;20457;-63
2023/05/08 01:19:19;;;;;;;5.13;3.08;;;16.60;75.40;;;;;;5056660;28;20083;-63
2023/05/08 01:21:52;;;;;;;4.80;3.10;;;16.60;76.10;;;;;;5056169;28;20040;-63
2023/05/08 01:24:41;;;;;;;7.45;3.42;;;16.50;76.30;;;;;;5056833;28;20438;-63
2023/05/08 01:27:28;;;;;;;6.50;3.28;;;16.50;76.20;;;;;;5055217;28;20462;-63
2023/05/08 01:30:31;;;;;;;5.18;3.20;;;16.50;77.20;;;;;;5056595;28;20025;-63
2023/05/08 01:33:05;;;;;;;5.20;3.70;;;16.40;78.60;;;;;;5056545;28;20020;-63
2023/05/08 01:35:46;;;;;;;6.95;3.90;;;16.30;77.30;;;;;;5056640;28;20029;-63
2023/05/08 01:38:21;;;;;;;7.53;4.82;;;16.30;78.80;;;;;;5055799;28;20063;-63
2023/05/08 01:40:53;;;;;;;6.50;4.38;;;16.20;78.70;;;;;;5055968;28;20476;-63
2023/05/08 01:43:43;;;;;;;7.35;3.90;;;16.10;79.20;;;;;;5055835;28;20025;-64
2023/05/08 01:46:22;;;;;;;6.32;4.45;;;16.20;79.60;;;;;;5055857;28;20040;-63
2023/05/08 01:48:55;;;;;;;6.43;4.57;;;16.10;79.60;;;;;;5055972;28;20066;-63
2023/05/08 01:51:24;;;;;;;5.45;4.05;;;16.10;80.10;;;;;;5056070;28;20071;-63
2023/05/08 01:54:01;;;;;;;6.57;4.20;;;16.10;80.10;;;;;;5055930;28;20354;-63
2023/05/08 01:56:29;;;;;;;9.13;4.97;;;16.10;80.10;;;;;;5056006;28;20048;-63
2023/05/08 01:58:57;;;;;;;5.43;4.38;;;16.00;81.20;;;;;;5055616;28;20029;-63
2023/05/08 02:01:27;;;;;;;9.20;4.75;;;16.10;81.20;;;;;;5055504;28;20372;-63
2023/05/08 02:03:56;;;;;;;6.15;4.07;;;16.00;80.00;;;;;;5055742;28;20029;-63
2023/05/08 02:06:23;;;;;;;7.10;4.85;;;16.10;80.00;;;;;;5056009;28;20103;-63
2023/05/08 02:08:52;;;;;;;5.97;4.32;;;16.10;79.20;;;;;;5055610;28;20346;-63
2023/05/08 02:11:19;;;;;;;8.43;4.75;;;16.10;79.20;;;;;;5055427;28;20020;-63
2023/05/08 02:13:47;;;;;;;7.82;4.75;;;16.20;78.80;;;;;;5055365;28;20021;-63
2023/05/08 02:16:15;;;;;;;7.10;4.80;;;16.20;78.90;;;;;;5055301;28;20036;-63
2023/05/08 02:18:49;;;;;;;6.78;4.43;;;16.20;79.00;;;;;;5055861;28;20090;-63
2023/05/08 02:21:17;;;;;;;5.03;3.92;;;16.20;79.20;;;;;;5055612;28;20040;-63
2023/05/08 02:23:45;;;;;;;5.88;3.85;;;16.20;78.70;;;;;;5055228;28;20029;-63
2023/05/08 02:26:14;;;;;;;5.45;3.70;;;16.20;78.80;;;;;;5055702;28;20029;-63
2023/05/08 02:28:41;;;;;;;6.22;4.13;;;16.20;78.80;;;;;;5055118;28;20044;-63
2023/05/08 02:31:12;;;;;;;5.10;3.60;;;16.20;79.80;;;;;;5055165;28;20028;-63
2023/05/08 02:33:41;;;;;;;6.60;4.28;;;16.10;79.20;;;;;;5055601;28;20066;-63
2023/05/08 02:36:07;;;;;;;5.88;4.40;;;16.20;79.70;;;;;;5054693;28;20059;-63
2023/05/08 02:38:36;;;;;;;6.20;4.20;;;16.10;80.10;;;;;;5055040;28;20055;-62
2023/05/08 02:41:05;;;;;;;6.25;4.20;;;16.10;80.10;;;;;;5055549;28;20029;-62
2023/05/08 02:43:32;;;;;;;6.47;4.28;;;16.10;79.50;;;;;;5055191;28;20032;-63
2023/05/08 02:46:10;;;;;;;7.03;4.00;;;16.10;79.50;;;;;;5055501;28;20439;-63
2023/05/08 02:49:20;;;;;;;5.75;4.20;;;16.10;79.60;;;;;;5055149;28;20040;-63
2023/05/08 02:52:14;;;;;;;5.75;4.10;;;16.10;79.60;;;;;;5048935;28;20033;-63
2023/05/08 02:55:06;;;;;;;;;;;16.10;79.00;;;;;;5058056;28;20049;-63
2023/05/08 02:57:52;;;;;;;8.05;4.07;;;16.10;79.40;;;;;;5057902;28;19908;-62
2023/05/08 03:00:27;;;;;;;6.82;4.30;;;16.20;78.90;;;;;;5055021;28;20064;-63
2023/05/08 03:03:24;;;;;;;4.93;3.75;;;16.20;78.30;;;;;;5059184;28;20040;-63
2023/05/08 03:05:55;;;;;;;5.38;3.70;;;16.20;78.30;;;;;;5058415;28;20068;-62
2023/05/08 03:08:34;;;;;;;5.63;3.85;;;16.20;78.80;;;;;;5059039;28;20039;-63
2023/05/08 03:11:04;;;;;;;5.85;4.15;;;16.20;78.30;;;;;;5059373;28;20021;-63
2023/05/08 03:13:33;;;;;;;5.45;3.30;;;16.10;79.10;;;;;;5058672;28;20025;-63
2023/05/08 03:16:04;;;;;;;5.10;3.58;;;16.20;78.50;;;;;;5059219;28;20060;-63
2023/05/08 03:18:35;;;;;;;5.45;3.60;;;16.10;78.60;;;;;;5058948;28;20028;-63
2023/05/08 03:21:02;;;;;;;4.03;3.08;;;16.10;78.90;;;;;;5058660;28;20029;-63
2023/05/08 03:23:30;;;;;;;4.07;3.20;;;16.20;78.40;;;;;;5058493;28;20465;-63
2023/05/08 03:25:58;;;;;;;6.55;3.67;;;16.10;78.40;;;;;;5058456;28;20029;-63
2023/05/08 03:28:25;;;;;;;5.05;3.30;;;16.10;78.70;;;;;;5058329;28;20044;-63
2023/05/08 03:30:52;;;;;;;4.72;3.55;;;16.10;78.80;;;;;;5058936;28;20021;-63
2023/05/08 03:33:20;;;;;;;5.47;3.53;;;16.10;79.70;;;;;;5058322;28;20049;-63
2023/05/08 03:35:48;;;;;;;6.55;3.83;;;16.10;79.00;;;;;;5058582;28;20092;-63
2023/05/08 03:38:15;;;;;;;6.88;4.45;;;16.00;78.90;;;;;;5058775;28;20075;-63
2023/05/08 03:40:41;;;;;;;7.38;4.60;;;16.10;78.90;;;;;;5057262;28;20075;-62
2023/05/08 03:43:08;;;;;;;7.55;5.18;;;16.00;79.60;;;;;;5058145;28;20052;-63
2023/05/08 03:45:37;;;;;;;7.78;4.95;;;16.10;79.60;;;;;;5058666;28;20033;-62
2023/05/08 03:48:04;;;;;;;7.53;4.97;;;16.00;80.10;;;;;;5058015;28;20083;-63
2023/05/08 03:50:33;;;;;;;9.27;5.75;;;16.00;80.00;;;;;;5058060;28;20021;-63
2023/05/08 03:52:59;;;;;;;8.13;5.22;;;16.00;79.90;;;;;;5058028;28;20024;-63
2023/05/08 03:55:25;;;;;;;7.63;5.20;;;16.00;79.60;;;;;;5057806;28;20119;-63
2023/05/08 03:58:12;;;;;;;13.07;5.15;;;16.10;80.00;;;;;;5058192;28;20031;-63
2023/05/08 04:00:47;;;;;;;7.15;4.75;;;16.10;79.20;;;;;;5057957;28;20025;-63
2023/05/08 04:03:28;;;;;;;7.00;4.90;;;16.10;79.40;;;;;;5073439;28;20124;-63
2023/05/08 04:06:19;;;;;;;8.32;5.80;;;16.10;79.30;;;;;;5058308;28;20067;-63
2023/05/08 04:08:54;;;;;;;10.23;5.90;;;16.10;79.80;;;;;;5058201;28;20335;-63
2023/05/08 04:11:30;;;;;;;8.30;5.50;;;16.10;79.60;;;;;;5058228;28;20415;-63
2023/05/08 04:14:09;;;;;;;7.70;5.30;;;16.10;79.50;;;;;;5057579;28;20103;-63
2023/05/08 04:16:38;;;;;;;6.75;4.80;;;16.10;79.70;;;;;;5058057;28;20071;-63
2023/05/08 04:19:10;;;;;;;8.35;5.60;;;16.10;79.50;;;;;;5057504;28;20462;-63
2023/05/08 04:21:41;;;;;;;7.78;5.72;;;16.10;79.20;;;;;;5057674;28;20443;-63
2023/05/08 04:24:11;;;;;;;7.80;5.15;;;16.20;79.30;;;;;;5057773;28;20043;-63
2023/05/08 04:26:38;;;;;;;7.40;5.05;;;16.20;79.30;;;;;;5057409;28;20330;-63
2023/05/08 04:29:05;;;;;;;10.50;5.97;;;16.20;79.30;;;;;;5057814;28;20029;-63
2023/05/08 04:31:33;;;;;;;7.65;5.05;;;16.20;79.20;;;;;;5057545;28;20025;-63
2023/05/08 04:33:59;;;;;;;8.15;5.53;;;16.30;79.20;;;;;;5057789;28;20064;-63
2023/05/08 04:36:28;;;;;;;7.55;5.13;;;16.30;79.20;;;;;;5057507;28;20021;-63
2023/05/08 04:38:54;;;;;;;6.97;5.18;;;16.30;79.10;;;;;;5057096;28;20033;-63
2023/05/08 04:41:20;;;;;;;6.90;4.78;;;16.30;79.10;;;;;;5057640;28;20368;-63
2023/05/08 04:43:46;;;;;;;7.18;4.97;;;16.30;79.10;;;;;;5056988;28;20040;-63
2023/05/08 04:46:12;;;;;;;6.97;4.88;;;16.40;79.10;;;;;;5057522;28;20024;-63
2023/05/08 04:48:38;;;;;;;8.13;5.00;;;16.30;79.20;;;;;;5057192;28;20349;-63
2023/05/08 04:51:04;;;;;;;9.57;6.53;;;16.40;79.20;;;;;;5057251;28;20025;-63
2023/05/08 04:53:30;;;;;;;11.05;6.22;;;16.40;78.90;;;;;;5057395;28;20342;-63
2023/05/08 04:55:57;;;;;;;7.85;5.35;;;16.40;79.10;;;;;;5056606;28;20053;-63
2023/05/08 04:58:23;;;;;;;9.32;5.60;;;16.40;79.10;;;;;;5055791;28;20048;-63
2023/05/08 05:00:49;;;;;;;7.70;5.45;;;16.40;79.10;;;;;;5057028;28;20014;-63
2023/05/08 05:03:15;;;;;;;9.07;5.57;;;16.50;79.20;;;;;;5056898;28;20082;-63
2023/05/08 05:05:41;;;;;;;8.02;5.22;;;16.50;79.10;;;;;;5072315;28;20384;-63
2023/05/08 05:08:07;;;;;;;7.43;5.03;;;16.50;79.10;;;;;;5056511;28;20428;-63
2023/05/08 05:10:33;;;;;;;8.32;5.57;;;16.50;79.10;;;;;;5056515;28;20025;-63
2023/05/08 05:12:59;;;;;;;7.47;5.22;;;16.60;79.10;;;;;;5055567;28;20029;-63
2023/05/08 05:15:25;;;;;;;7.55;5.28;;;16.50;79.10;;;;;;5056450;28;20315;-63
2023/05/08 05:17:51;;;;;;;8.88;5.68;;;16.60;79.20;;;;;;5056660;28;20021;-63
2023/05/08 05:20:17;;;;;;;8.65;5.43;;;16.60;79.00;;;;;;5056886;28;20040;-63
2023/05/08 05:22:42;;;;;;;8.93;5.55;;;16.60;78.90;;;;;;5056557;28;20064;-63
2023/05/08 05:25:09;;;;;;;10.13;6.30;;;16.60;78.80;;;;;;5056314;28;20131;-63
2023/05/08 05:27:35;;;;;;;7.75;5.57;;;16.60;78.90;;;;;;5056980;28;20051;-63
2023/05/08 05:30:02;;;;;;;9.75;6.35;;;16.70;79.10;;;;;;5057026;28;20025;-63
2023/05/08 05:32:28;;;;;;;8.85;5.80;;;16.70;79.10;;;;;;5057800;28;20032;-63
2023/05/08 05:34:55;;;;;;;10.00;5.95;;;16.70;79.10;;;;;;5056964;28;20047;-62
2023/05/08 05:37:22;;;;;;;9.00;5.97;;;16.70;79.10;;;;;;5056069;28;20021;-63
2023/05/08 05:39:47;;;;;;;8.18;5.80;;;16.70;79.00;;;;;;5055999;28;20017;-62
2023/05/08 05:42:14;;;;;;;9.18;6.40;;;16.70;79.00;;;;;;5055888;28;20044;-62
2023/05/08 05:44:40;;;;;;;11.30;7.22;;;16.80;79.20;;;;;;5056154;28;20059;-62
2023/05/08 05:47:08;;;;;;;12.40;6.40;;;16.80;79.10;;;;;;5056095;28;20037;-62
2023/05/08 05:49:34;;;;;;;8.98;6.10;;;16.80;79.10;;;;;;5055771;28;20024;-61
2023/05/08 05:52:00;;;;;;;11.57;7.28;;;16.90;79.00;;;;;;5055657;28;20212;-61
2023/05/08 05:54:26;;;;;;;11.18;6.78;;;16.90;79.00;;;;;;5055937;28;20127;-62
2023/05/08 05:56:52;;;;;;;9.93;6.88;;;16.90;78.90;;;;;;5055642;28;20025;-61
2023/05/08 05:59:18;;;;;;;9.75;6.63;;;16.90;78.80;;;;;;5056061;28;20024;-61
2023/05/08 06:01:45;;;;;;;11.82;8.10;;;16.90;79.00;;;;;;5055608;28;20049;-62
2023/05/08 06:04:11;;;;;;;10.80;7.32;;;16.90;79.10;;;;;;5056066;28;20422;-63
2023/05/08 06:06:37;;;;;;;13.88;7.88;;;16.90;79.30;;;;;;5055960;28;20040;-62
2023/05/08 06:09:03;;;;;;;8.73;6.07;;;16.90;79.00;;;;;;5055378;28;20036;-62
2023/05/08 06:11:29;;;;;;;10.68;7.00;;;16.90;79.00;;;;;;5055377;28;20033;-63
2023/05/08 06:13:55;;;;;;;10.23;7.13;;;16.90;79.00;;;;;;5055253;28;20032;-62
2023/05/08 06:16:21;;;;;;;12.57;7.13;;;16.90;78.90;;;;;;5055303;28;20392;-63
2023/05/08 06:18:48;;;;;;;8.93;6.15;;;17.00;79.00;;;;;;5055230;28;20033;-62
2023/05/08 06:21:14;;;;;;;13.90;8.35;;;17.00;78.90;;;;;;5054279;28;20037;-61
2023/05/08 06:23:41;;;;;;;11.20;7.68;;;17.10;79.00;;;;;;5054919;28;20358;-62
2023/05/08 06:26:07;;;;;;;12.65;9.15;;;17.10;79.10;;;;;;5055480;28;20052;-62
2023/05/08 06:28:33;;;;;;;10.77;7.97;;;17.20;78.90;;;;;;5055046;28;20442;-62
2023/05/08 06:30:59;;;;;;;11.30;8.23;;;17.30;79.00;;;;;;5055161;28;20040;-62
2023/05/08 06:33:25;;;;;;;11.05;7.40;;;17.40;79.00;;;;;;5055260;28;20029;-62
2023/05/08 06:35:51;;;;;;;10.48;7.70;;;17.40;78.60;;;;;;5055082;28;20434;-62
2023/05/08 06:38:17;;;;;;;10.18;6.90;;;17.50;78.70;;;;;;5054209;28;20017;-62
2023/05/08 06:40:44;;;;;;;9.07;5.78;;;17.60;78.50;;;;;;5055198;28;20033;-63
2023/05/08 06:43:11;;;;;;;8.27;5.32;;;17.70;78.10;;;;;;5054917;28;20052;-62
2023/05/08 06:45:37;;;;;;;10.38;7.07;;;17.90;77.80;;;;;;5054990;28;20021;-68
2023/05/08 06:48:03;;;;;;;10.43;6.95;;;18.10;77.60;;;;;;5053623;28;20067;-68
2023/05/08 06:50:30;;;;;;;13.80;7.72;;;18.30;76.80;;;;;;5050316;28;20025;-67
2023/05/08 06:52:56;;;;;;;8.93;5.60;;;18.40;76.40;;;;;;5054740;28;20025;-61
2023/05/08 06:55:22;;;;;;;13.13;6.13;;;18.50;76.30;;;;;;5053668;28;20056;-67
2023/05/08 06:57:47;;;;;;;10.25;6.05;;;18.70;75.80;;;;;;5055001;28;20024;-68
2023/05/08 07:00:14;;;;;;;9.18;6.50;;;18.90;75.70;;;;;;5055222;28;20071;-67
2023/05/08 07:02:40;;;;;;;8.52;5.57;;;19.30;75.20;;;;;;5054393;28;20039;-68
2023/05/08 07:05:16;;;;;;;8.32;5.63;;;19.70;74.60;;;;;;5054740;28;20025;-61
2023/05/08 07:07:41;;;;;;;7.88;5.85;;;20.20;74.20;;;;;;5054725;28;20461;-61
2023/05/08 07:10:08;;;;;;;8.50;5.63;;;20.50;73.10;;;;;;5054880;28;20028;-61
2023/05/08 07:12:33;;;;;;;8.30;5.63;;;20.80;72.40;;;;;;5053671;28;20021;-69
2023/05/08 07:14:59;;;;;;;8.35;5.63;;;21.10;71.70;;;;;;5053871;28;20029;-68
2023/05/08 07:17:25;;;;;;;7.60;5.50;;;21.40;70.70;;;;;;5054500;28;20308;-69
2023/05/08 07:19:51;;;;;;;8.57;5.50;;;21.50;70.20;;;;;;5054748;28;20044;-61
2023/05/08 07:22:17;;;;;;;9.82;5.63;;;21.60;69.70;;;;;;5054374;28;20395;-69
2023/05/08 07:24:42;;;;;;;11.63;5.85;;;21.50;69.00;;;;;;5054530;28;20127;-61
2023/05/08 07:27:08;;;;;;;8.52;5.20;;;21.60;69.10;;;;;;5054518;28;20060;-61
2023/05/08 07:29:39;;;;;;;6.93;5.18;;;21.60;68.90;;;;;;5054730;28;20032;-62
2023/05/08 07:32:08;;;;;;;8.57;5.10;;;21.70;68.80;;;;;;5050854;28;20029;-69
2023/05/08 07:34:34;;;;;;;12.60;5.47;;;21.60;68.10;;;;;;5054456;28;20037;-61
2023/05/08 07:37:00;;;;;;;8.27;5.95;;;21.60;68.00;;;;;;5056433;28;20099;-62
2023/05/08 07:39:26;;;;;;;8.60;5.50;;;21.40;67.70;;;;;;5058194;28;20457;-69
2023/05/08 07:41:52;;;;;;;7.90;5.47;;;21.40;67.90;;;;;;5058465;28;20096;-62
2023/05/08 07:44:18;;;;;;;8.77;5.18;;;21.30;68.20;;;;;;5058424;28;20108;-66
2023/05/08 07:46:44;;;;;;;8.73;5.82;;;21.40;68.30;;;;;;5058277;28;20488;-65
2023/05/08 07:49:10;;;;;;;9.02;5.55;;;21.30;67.60;;;;;;5058025;28;20473;-68
2023/05/08 07:51:35;;;;;;;8.77;5.75;;;21.30;67.90;;;;;;5057931;28;20029;-67
2023/05/08 07:54:02;;;;;;;9.48;5.70;;;21.20;67.80;;;;;;5056687;28;20040;-63
2023/05/08 07:56:27;;;;;;;8.45;5.72;;;21.20;68.20;;;;;;5056670;28;20025;-68
2023/05/08 07:58:53;;;;;;;7.90;5.28;;;21.10;68.10;;;;;;5058256;28;20036;-63
2023/05/08 08:01:19;;;;;;;8.15;5.43;;;21.10;68.00;;;;;;5057687;28;20366;-67
2023/05/08 08:03:45;;;;;;;7.65;5.70;;;21.00;68.20;;;;;;5057689;28;20025;-63
2023/05/08 08:06:11;;;;;;;8.07;5.72;;;21.00;68.30;;;;;;5056776;28;20040;-67
2023/05/08 08:08:38;;;;;;;8.82;5.70;;;20.90;68.30;;;;;;5057913;28;20021;-66
2023/05/08 08:11:04;;;;;;;8.32;5.97;;;20.80;67.90;;;;;;5040283;28;20025;-68
2023/05/08 08:13:31;;;;;;;8.75;6.32;;;20.60;68.10;;;;;;5057870;28;20438;-68
2023/05/08 08:15:58;;;;;;;8.57;6.05;;;20.40;68.40;;;;;;5057385;28;20027;-68
2023/05/08 08:18:24;;;;;;;9.05;5.47;;;20.40;68.30;;;;;;5056473;28;20025;-68
2023/05/08 08:20:50;;;;;;;8.57;5.55;;;20.30;67.90;;;;;;5057546;28;20025;-63
2023/05/08 08:23:16;;;;;;;9.27;6.25;;;20.10;68.20;;;;;;5057421;28;20095;-63
2023/05/08 08:25:42;;;;;;;10.55;6.13;;;20.00;68.50;;;;;;5057662;28;20025;-62
2023/05/08 08:28:08;;;;;;;8.93;6.00;;;19.90;68.70;;;;;;5056461;28;20044;-68
2023/05/08 08:30:34;;;;;;;8.73;5.72;;;19.90;69.00;;;;;;5057388;28;20362;-62
2023/05/08 08:33:01;;;;;;;8.88;5.82;;;19.90;69.20;;;;;;5057332;28;20018;-62
2023/05/08 08:35:28;;;;;;;8.88;6.15;;;19.80;69.40;;;;;;5057283;28;20483;-62
2023/05/08 08:37:57;;;;;;;8.25;5.85;;;19.80;69.30;;;;;;5057117;28;20022;-62
2023/05/08 08:40:23;;;;;;;8.40;5.60;;;19.80;69.30;;;;;;5056163;28;20365;-68
2023/05/08 08:42:50;;;;;;;9.50;6.15;;;19.80;69.40;;;;;;5057365;28;20171;-68
2023/05/08 08:45:16;;;;;;;8.68;6.50;;;19.90;69.30;;;;;;5057026;28;20037;-68
2023/05/08 08:47:44;;;;;;;9.07;6.00;;;19.80;69.30;;;;;;5056340;28;20029;-68
2023/05/08 08:50:12;;;;;;;9.75;6.45;;;19.80;69.30;;;;;;5057208;28;20040;-68
2023/05/08 08:52:40;;;;;;;10.13;6.60;;;19.80;69.50;;;;;;5057138;28;20020;-68
2023/05/08 08:55:11;;;;;;;9.35;5.88;;;19.90;69.60;;;;;;5056850;28;20374;-68
2023/05/08 08:57:44;;;;;;;8.32;6.15;;;19.90;69.60;;;;;;5057406;28;20071;-68
2023/05/08 09:00:11;;;;;;;8.75;6.20;;;20.00;69.40;;;;;;5057383;28;20354;-68
2023/05/08 09:02:38;;;;;;;8.63;6.00;;;20.10;69.30;;;;;;5056931;28;20485;-68
2023/05/08 09:05:04;;;;;;;8.05;6.00;;;20.10;69.20;;;;;;5057220;28;20112;-68
2023/05/08 09:07:32;;;;;;;10.23;6.75;;;20.20;68.80;;;;;;5055740;28;20095;-68
2023/05/08 09:09:59;;;;;;;10.07;6.45;;;20.30;68.80;;;;;;5056574;28;20059;-68
2023/05/08 09:12:25;;;;;;;10.15;6.40;;;20.40;68.70;;;;;;5055606;28;20025;-68
2023/05/08 09:14:51;;;;;;;10.13;7.13;;;20.40;68.50;;;;;;5057069;28;20029;-68
2023/05/08 09:17:17;;;;;;;13.50;6.72;;;20.40;68.40;;;;;;5056735;28;20024;-68
2023/05/08 09:19:43;;;;;;;8.85;6.95;;;20.40;68.00;;;;;;5056716;28;20064;-68
2023/05/08 09:22:10;;;;;;;10.15;7.20;;;20.40;67.60;;;;;;5056341;28;20021;-68
2023/05/08 09:25:02;;;;;;;9.63;7.22;;;20.40;67.50;;;;;;5056599;28;20017;-68
2023/05/08 09:27:30;;;;;;;9.05;6.45;;;20.40;67.90;;;;;;5055406;28;20037;-68
2023/05/08 09:30:04;;;;;;;8.85;6.53;;;20.40;67.90;;;;;;5056642;28;20028;-68
2023/05/08 09:32:31;;;;;;;8.98;6.68;;;20.40;68.20;;;;;;5056503;28;20024;-68
2023/05/08 09:34:58;;;;;;;8.57;6.65;;;20.50;68.20;;;;;;5056391;28;20032;-68
2023/05/08 09:37:25;;;;;;;10.50;6.85;;;20.50;68.10;;;;;;5055066;28;20032;-68
2023/05/08 09:39:51;;;;;;;8.50;6.20;;;20.60;67.90;;;;;;5056101;28;20032;-68
2023/05/08 09:42:17;;;;;;;11.02;6.20;;;20.60;67.80;;;;;;5056323;28;20021;-68
2023/05/08 09:44:53;;;;;;;7.95;5.70;;;20.60;67.50;;;;;;5056235;28;20104;-68
2023/05/08 09:47:21;;;;;;;7.68;5.20;;;20.70;66.90;;;;;;5056212;28;20029;-68
2023/05/08 09:50:00;;;;;;;8.13;5.90;;;20.70;66.40;;;;;;5055778;28;20111;-68
2023/05/08 09:52:27;;;;;;;8.90;6.07;;;20.60;65.90;;;;;;5055776;28;20044;-68
2023/05/08 09:54:57;;;;;;;7.18;5.40;;;20.60;65.60;;;;;;5055542;28;20555;-68
2023/05/08 09:57:24;;;;;;;7.53;5.10;;;20.70;65.40;;;;;;5055706;28;20028;-68
2023/05/08 09:59:50;;;;;;;8.02;5.15;;;20.70;65.50;;;;;;5055335;28;20025;-68
2023/05/08 10:02:19;;;;;;;7.18;4.88;;;20.80;65.60;;;;;;5055783;28;20021;-68
2023/05/08 10:04:45;;;;;;;7.13;4.47;;;21.00;65.00;;;;;;5055515;28;20460;-68
2023/05/08 10:07:11;;;;;;;6.90;4.80;;;21.20;64.40;;;;;;5055824;28;20025;-69
2023/05/08 10:09:37;;;;;;;8.57;4.40;;;21.40;63.20;;;;;;5055430;28;20032;-68
2023/05/08 10:12:03;;;;;;;6.30;4.65;;;21.60;63.10;;;;;;5055708;28;20021;-69
2023/05/08 10:14:29;;;;;;;7.03;4.68;;;21.80;62.80;;;;;;5055472;28;20029;-68
2023/05/08 10:16:56;;;;;;;6.93;4.70;;;21.90;62.20;;;;;;5055434;28;20021;-68
2023/05/08 10:19:24;;;;;;;6.72;5.30;;;22.20;62.10;;;;;;5055669;28;20021;-68
2023/05/08 10:21:52;;;;;;;6.40;4.97;;;22.40;60.60;;;;;;5055264;28;20032;-68
2023/05/08 10:24:20;;;;;;;7.28;5.05;;;22.50;60.40;;;;;;5055552;28;20029;-68
2023/05/08 10:27:02;;;;;;;6.70;4.70;;;22.50;60.60;;;;;;5054294;28;20119;-68
2023/05/08 10:29:46;;;;;;;6.43;5.00;;;22.60;59.50;;;;;;5055754;28;20350;-68
2023/05/08 10:32:15;;;;;;;7.72;5.45;;;22.70;59.60;;;;;;5055738;28;20045;-68
2023/05/08 10:34:42;;;;;;;7.43;5.38;;;22.80;60.00;;;;;;5054625;28;20107;-68
2023/05/08 10:37:10;;;;;;;7.68;5.38;;;22.90;60.20;;;;;;5055675;28;20147;-68
2023/05/08 10:39:36;;;;;;;8.57;5.40;;;22.90;59.90;;;;;;5055374;28;20040;-68
2023/05/08 10:42:02;;;;;;;8.63;5.38;;;23.00;59.60;;;;;;5055459;28;20342;-68
2023/05/08 10:44:31;;;;;;;8.88;5.90;;;23.10;60.00;;;;;;5055064;28;20190;-68
2023/05/08 10:47:09;;;;;;;7.90;5.07;;;23.10;59.80;;;;;;5055587;28;20017;-68
2023/05/08 10:49:46;;;;;;;6.22;5.15;;;23.20;60.10;;;;;;5055516;28;20068;-68
2023/05/08 10:52:28;;;;;;;6.47;4.97;;;23.30;59.90;;;;;;5055454;28;20032;-68
2023/05/08 10:54:57;;;;;;;8.07;5.28;;;23.20;59.50;;;;;;5054909;28;20053;-68
2023/05/08 10:57:24;;;;;;;8.30;5.55;;;23.20;59.50;;;;;;5054887;28;20028;-68
2023/05/08 10:59:50;;;;;;;5.97;4.97;;;23.10;59.20;;;;;;5054949;28;20079;-68
2023/05/08 11:02:24;;;;;;;7.47;5.20;;;23.00;59.50;;;;;;5054800;28;20025;-68
2023/05/08 11:04:50;;;;;;;8.02;5.45;;;22.90;58.80;;;;;;5055146;28;20086;-68
2023/05/08 11:07:17;;;;;;;6.85;5.05;;;22.90;58.60;;;;;;5054878;28;20054;-68
2023/05/08 11:09:46;;;;;;;8.00;5.15;;;22.90;59.20;;;;;;5055055;28;20033;-68
2023/05/08 11:12:20;;;;;;;7.68;5.05;;;22.90;59.30;;;;;;5058245;28;20350;-68
2023/05/08 11:14:57;;;;;;;7.03;5.18;;;22.90;59.40;;;;;;5059060;28;20025;-68
2023/05/08 11:17:25;;;;;;;6.38;5.05;;;23.00;59.40;;;;;;5059339;28;20078;-68
2023/05/08 11:19:58;;;;;;;7.40;4.90;;;23.10;59.70;;;;;;5058666;28;20365;-69
2023/05/08 11:22:27;;;;;;;7.05;4.93;;;23.10;59.40;;;;;;5058913;28;20029;-69
2023/05/08 11:25:07;;;;;;;7.90;5.60;;;23.00;59.10;;;;;;5058936;28;20025;-69
2023/05/08 11:27:37;;;;;;;7.47;5.32;;;23.00;59.20;;;;;;5058941;28;20457;-68
2023/05/08 11:30:31;;;;;;;7.18;5.35;;;22.90;59.70;;;;;;5058524;28;20499;-68
2023/05/08 11:33:03;;;;;;;;;;;22.90;60.00;;;;;;5059470;28;20099;-68
2023/05/08 11:35:47;;;;;;;7.35;5.22;;;22.90;59.30;;;;;;5058454;28;20374;-68
2023/05/08 11:38:34;;;;;;;7.32;5.25;;;22.90;59.50;;;;;;5058350;28;20033;-68
2023/05/08 11:41:23;;;;;;;7.22;5.50;;;23.00;59.30;;;;;;5058392;28;20078;-68
2023/05/08 11:44:04;;;;;;;6.60;4.78;;;23.00;59.50;;;;;;5058249;28;20116;-68
2023/05/08 11:46:50;;;;;;;6.03;4.82;;;23.10;60.80;;;;;;5058833;28;20104;-68
2023/05/08 11:49:17;;;;;;;7.10;4.55;;;23.10;60.00;;;;;;5058090;28;20094;-68
2023/05/08 11:51:56;;;;;;;6.20;4.80;;;23.20;59.50;;;;;;5058410;28;20029;-68
2023/05/08 11:54:24;;;;;;;6.13;4.70;;;23.20;59.60;;;;;;5057854;28;20057;-68
2023/05/08 11:56:52;;;;;;;6.45;4.60;;;23.30;59.60;;;;;;5058034;28;20056;-68
2023/05/08 11:59:20;;;;;;;6.43;4.28;;;23.30;59.40;;;;;;5057961;28;20040;-68
2023/05/08 12:01:50;;;;;;;8.50;5.10;;;23.40;59.40;;;;;;5057844;28;20505;-69
2023/05/08 12:04:16;;;;;;;5.25;4.20;;;23.30;59.20;;;;;;5058741;28;20421;-69
2023/05/08 12:06:43;;;;;;;6.18;4.82;;;23.30;59.40;;;;;;5058437;28;20446;-69
2023/05/08 12:09:11;;;;;;;6.38;4.72;;;23.30;59.40;;;;;;5057679;28;20032;-69
2023/05/08 12:11:40;;;;;;;5.93;4.30;;;23.20;59.30;;;;;;5057743;28;20036;-69
2023/05/08 12:14:06;;;;;;;6.63;4.50;;;23.20;59.60;;;;;;5057705;28;20103;-69
2023/05/08 12:16:36;;;;;;;6.07;4.07;;;23.10;59.00;;;;;;5057969;28;20098;-69
2023/05/08 12:19:03;;;;;;;5.78;4.60;;;23.00;59.50;;;;;;5058030;28;20099;-69
2023/05/08 12:21:29;;;;;;;6.15;4.47;;;22.90;59.20;;;;;;5057328;28;20128;-69
2023/05/08 12:23:56;;;;;;;5.60;4.38;;;22.80;59.70;;;;;;5057487;28;20025;-69
2023/05/08 12:26:22;;;;;;;5.57;4.22;;;22.60;60.10;;;;;;5057554;28;20025;-69
2023/05/08 12:28:55;;;;;;;9.23;4.70;;;22.50;60.30;;;;;;5057645;28;20025;-69
2023/05/08 12:31:21;;;;;;;6.73;4.13;;;22.50;60.50;;;;;;5057410;28;20029;-69
2023/05/08 12:33:48;;;;;;;4.97;4.00;;;22.40;60.50;;;;;;5057320;28;20301;-69
2023/05/08 12:36:14;;;;;;;5.35;3.75;;;22.20;60.80;;;;;;5056514;28;20021;-69
2023/05/08 12:38:39;;;;;;;5.93;4.10;;;22.20;60.90;;;;;;5057773;28;20422;-69
2023/05/08 12:41:07;;;;;;;5.88;4.13;;;22.10;61.00;;;;;;5057551;28;20033;-68
2023/05/08 12:43:34;;;;;;;5.47;4.57;;;22.00;61.00;;;;;;5057112;28;20100;-68
2023/05/08 12:46:01;;;;;;;6.03;4.40;;;21.90;61.10;;;;;;5057683;28;20029;-68
2023/05/08 12:48:27;;;;;;;7.18;4.55;;;21.80;61.30;;;;;;5056990;28;20121;-68
2023/05/08 12:50:59;;;;;;;8.13;4.20;;;21.70;61.30;;;;;;5057024;28;20104;-68
2023/05/08 12:53:30;;;;;;;6.22;4.30;;;21.70;61.40;;;;;;5057240;28;20025;-68
2023/05/08 12:55:59;;;;;;;5.68;3.88;;;21.60;61.60;;;;;;5056715;28;20044;-69
2023/05/08 12:58:31;;;;;;;6.57;4.47;;;21.60;61.70;;;;;;5039612;28;20056;-69